Time;durP1;ratioP1;P1;durP2;ratioP2;P2;SDS_P1;SDS_P2;PMS_P1;PMS_P2;Temp;Humidity;BMP_temperature;BMP_pressure;BME280_temperature;BME280_humidity;BME280_pressure;Samples;Min_cycle;Max_cycle;Signal;HPM_P1;HPM_P2
2023/07/24 00:00:35;;;;;;;9.93;5.60;;;17.60;99.90;;;;;;4768762;30;20204;-74
2023/07/24 00:03:02;;;;;;;7.70;4.30;;;17.50;99.90;;;;;;4782770;30;20189;-75
2023/07/24 00:05:27;;;;;;;8.30;4.80;;;17.50;99.90;;;;;;4782677;30;20391;-74
2023/07/24 00:07:53;;;;;;;5.90;4.30;;;17.50;99.90;;;;;;4784282;30;20431;-76
2023/07/24 00:10:18;;;;;;;6.10;4.03;;;17.40;99.90;;;;;;4775477;30;20214;-74
2023/07/24 00:12:44;;;;;;;6.33;4.60;;;17.40;99.90;;;;;;4781518;30;20197;-74
2023/07/24 00:15:10;;;;;;;7.83;5.30;;;17.40;99.90;;;;;;4750425;30;20188;-75
2023/07/24 00:17:35;;;;;;;6.00;4.47;;;17.30;99.90;;;;;;4794655;29;20668;-74
2023/07/24 00:20:01;;;;;;;6.60;5.00;;;17.30;99.90;;;;;;4771230;30;20233;-74
2023/07/24 00:22:26;;;;;;;7.97;4.60;;;17.20;99.90;;;;;;4768980;29;20206;-75
2023/07/24 00:24:52;;;;;;;6.23;5.17;;;17.20;99.90;;;;;;4775444;30;20247;-76
2023/07/24 00:27:21;;;;;;;8.57;5.40;;;17.20;99.90;;;;;;4752718;30;20255;-75
2023/07/24 00:29:57;;;;;;;12.57;5.60;;;17.20;99.90;;;;;;4767690;30;20208;-77
2023/07/24 00:32:23;;;;;;;7.00;5.17;;;17.20;99.90;;;;;;4764424;30;20428;-74
2023/07/24 00:34:49;;;;;;;8.20;4.77;;;17.20;99.90;;;;;;4771437;29;20432;-75
2023/07/24 00:37:15;;;;;;;6.60;4.37;;;17.20;99.90;;;;;;4785210;29;20848;-74
2023/07/24 00:39:41;;;;;;;7.50;3.73;;;17.10;99.90;;;;;;4781415;30;20286;-75
2023/07/24 00:42:06;;;;;;;6.53;4.03;;;17.10;99.90;;;;;;4750341;30;20427;-76
2023/07/24 00:44:32;;;;;;;5.43;4.60;;;17.20;99.90;;;;;;4768943;30;20219;-74
2023/07/24 00:46:58;;;;;;;10.27;5.37;;;17.20;99.90;;;;;;4782286;30;20246;-75
2023/07/24 00:49:24;;;;;;;9.70;6.63;;;17.10;99.90;;;;;;4764713;30;20231;-75
2023/07/24 00:51:50;;;;;;;8.47;5.87;;;17.10;99.90;;;;;;4767748;30;20315;-75
2023/07/24 00:54:18;;;;;;;9.90;6.70;;;17.00;99.90;;;;;;4780335;30;20467;-74
2023/07/24 00:56:45;;;;;;;9.50;5.30;;;17.00;99.90;;;;;;4764943;30;20211;-74
2023/07/24 00:59:11;;;;;;;9.53;6.13;;;17.00;99.90;;;;;;4764057;30;20782;-75
2023/07/24 01:01:39;;;;;;;10.00;5.90;;;16.90;99.90;;;;;;4749701;30;20413;-74
2023/07/24 01:04:06;;;;;;;7.60;5.50;;;16.90;99.90;;;;;;4749673;30;20462;-75
2023/07/24 01:06:32;;;;;;;7.10;5.60;;;16.90;99.90;;;;;;4802135;29;20893;-74
2023/07/24 01:08:58;;;;;;;10.70;6.60;;;16.80;99.90;;;;;;4799321;29;20420;-73
2023/07/24 01:11:36;;;;;;;11.37;7.17;;;16.80;99.90;;;;;;4766617;30;20659;-75
2023/07/24 01:14:09;;;;;;;9.73;5.73;;;16.80;99.90;;;;;;4765108;30;20471;-74
2023/07/24 01:16:37;;;;;;;13.00;7.47;;;16.80;99.90;;;;;;4778099;30;20434;-74
2023/07/24 01:19:17;;;;;;;10.07;6.70;;;16.80;99.90;;;;;;4794786;29;20420;-72
2023/07/24 01:22:02;;;;;;;11.80;6.83;;;16.70;99.90;;;;;;4784526;29;20437;-74
2023/07/24 01:24:43;;;;;;;11.00;6.73;;;16.70;99.90;;;;;;4796860;29;20426;-73
2023/07/24 01:27:09;;;;;;;9.97;6.43;;;16.70;99.90;;;;;;4780917;30;20441;-74
2023/07/24 01:29:34;;;;;;;9.37;6.20;;;16.70;99.90;;;;;;4782136;30;20462;-74
2023/07/24 01:32:00;;;;;;;8.73;5.87;;;16.70;99.90;;;;;;4767459;30;20173;-74
2023/07/24 01:34:26;;;;;;;7.73;5.63;;;16.70;99.90;;;;;;4783295;30;20193;-73
2023/07/24 01:36:51;;;;;;;7.60;5.03;;;16.70;99.90;;;;;;4815006;29;20488;-75
2023/07/24 01:39:19;;;;;;;9.70;6.80;;;16.70;99.90;;;;;;4790256;29;20219;-73
2023/07/24 01:41:46;;;;;;;13.23;6.97;;;16.70;99.90;;;;;;4798871;29;20282;-74
2023/07/24 01:44:12;;;;;;;16.17;7.30;;;16.70;99.90;;;;;;4792412;29;20690;-75
2023/07/24 01:46:38;;;;;;;12.83;7.43;;;16.70;99.90;;;;;;4818337;29;20434;-74
2023/07/24 01:49:04;;;;;;;9.40;6.10;;;16.80;99.90;;;;;;4802738;29;20704;-75
2023/07/24 01:51:30;;;;;;;10.90;6.60;;;16.80;99.90;;;;;;4788800;29;20270;-75
2023/07/24 01:53:56;;;;;;;11.93;6.37;;;16.80;99.90;;;;;;4802269;29;20181;-74
2023/07/24 01:56:21;;;;;;;10.20;5.57;;;16.80;99.90;;;;;;4795191;29;20438;-74
2023/07/24 01:58:47;;;;;;;10.20;6.17;;;16.80;99.90;;;;;;4784367;30;20230;-74
2023/07/24 02:01:14;;;;;;;11.63;6.50;;;16.80;99.90;;;;;;4783589;30;20452;-74
2023/07/24 02:03:40;;;;;;;9.60;5.77;;;16.90;99.90;;;;;;4784081;30;20194;-74
2023/07/24 02:06:05;;;;;;;10.37;6.73;;;16.90;99.90;;;;;;4768189;30;20438;-76
2023/07/24 02:08:31;;;;;;;11.23;6.13;;;16.90;99.90;;;;;;4781248;29;20231;-75
2023/07/24 02:10:56;;;;;;;10.00;5.77;;;17.00;99.90;;;;;;4778501;29;20247;-74
2023/07/24 02:13:25;;;;;;;10.93;5.93;;;17.00;99.90;;;;;;4761185;29;20210;-74
2023/07/24 02:15:50;;;;;;;9.77;5.37;;;17.00;99.90;;;;;;4769768;30;20432;-74
2023/07/24 02:18:17;;;;;;;9.23;6.20;;;17.00;99.90;;;;;;4793246;29;20267;-74
2023/07/24 02:20:49;;;;;;;10.20;5.97;;;17.00;99.90;;;;;;4818876;29;20434;-73
2023/07/24 02:23:14;;;;;;;8.57;5.17;;;17.00;99.90;;;;;;4786173;29;20439;-74
2023/07/24 02:25:41;;;;;;;10.83;5.70;;;17.10;99.90;;;;;;4789202;30;20450;-74
2023/07/24 02:28:06;;;;;;;11.17;5.60;;;17.10;99.90;;;;;;4801045;29;20459;-75
2023/07/24 02:30:32;;;;;;;9.93;5.53;;;17.10;99.90;;;;;;4781359;29;20221;-73
2023/07/24 02:32:57;;;;;;;15.77;6.83;;;17.20;99.90;;;;;;4783681;30;20521;-74
2023/07/24 02:35:23;;;;;;;11.23;6.67;;;17.10;99.90;;;;;;4794174;29;20224;-75
2023/07/24 02:37:48;;;;;;;9.03;6.20;;;17.10;99.90;;;;;;4787520;29;20266;-75
2023/07/24 02:40:14;;;;;;;12.60;7.50;;;17.10;99.90;;;;;;4795258;29;20220;-75
2023/07/24 02:42:40;;;;;;;10.77;6.30;;;17.00;99.90;;;;;;4818040;29;20196;-74
2023/07/24 02:45:10;;;;;;;9.47;5.90;;;17.00;99.90;;;;;;4775929;30;20199;-75
2023/07/24 02:47:36;;;;;;;9.37;6.10;;;17.00;99.90;;;;;;4775512;29;20326;-74
2023/07/24 02:50:02;;;;;;;9.80;7.17;;;17.00;99.90;;;;;;4787336;29;20474;-74
2023/07/24 02:52:28;;;;;;;8.83;5.47;;;17.00;99.90;;;;;;4790395;30;20474;-74
2023/07/24 02:54:54;;;;;;;7.63;5.43;;;17.00;99.90;;;;;;4780011;29;20263;-75
2023/07/24 02:57:20;;;;;;;10.27;5.97;;;17.00;99.90;;;;;;4802354;29;20287;-77
2023/07/24 02:59:46;;;;;;;8.83;5.60;;;17.10;99.90;;;;;;4799833;29;20434;-75
2023/07/24 03:02:22;;;;;;;7.20;4.57;;;17.00;99.90;;;;;;4796247;29;20428;-75
2023/07/24 03:04:49;;;;;;;7.30;4.17;;;17.10;99.90;;;;;;4817618;29;20490;-74
2023/07/24 03:07:15;;;;;;;6.47;4.23;;;17.10;99.90;;;;;;4799139;29;20438;-75
2023/07/24 03:09:40;;;;;;;4.93;3.63;;;17.10;99.90;;;;;;4781873;30;20221;-76
2023/07/24 03:12:06;;;;;;;6.10;3.90;;;17.10;99.90;;;;;;4803180;29;20230;-74
2023/07/24 03:14:32;;;;;;;4.57;3.73;;;17.10;99.90;;;;;;4819561;29;20202;-75
2023/07/24 03:16:57;;;;;;;4.10;3.67;;;17.10;99.90;;;;;;4775074;30;20242;-73
2023/07/24 03:19:23;;;;;;;5.20;3.27;;;17.10;99.90;;;;;;4802114;29;20218;-74
2023/07/24 03:21:48;;;;;;;3.77;3.20;;;17.10;99.90;;;;;;4817504;29;20276;-73
2023/07/24 03:24:14;;;;;;;6.10;4.13;;;17.10;99.90;;;;;;4816304;29;20223;-74
2023/07/24 03:26:40;;;;;;;5.27;4.10;;;17.10;99.90;;;;;;4783460;30;20198;-74
2023/07/24 03:29:05;;;;;;;7.47;4.50;;;17.10;99.90;;;;;;4771857;29;20198;-73
2023/07/24 03:31:31;;;;;;;6.50;4.17;;;17.10;99.90;;;;;;4799224;30;20198;-73
2023/07/24 03:33:57;;;;;;;5.40;4.33;;;17.10;99.90;;;;;;4778818;29;20218;-73
2023/07/24 03:36:22;;;;;;;4.70;3.93;;;17.00;99.90;;;;;;4786558;29;20478;-74
2023/07/24 03:38:48;;;;;;;5.50;4.30;;;17.00;99.90;;;;;;4799185;29;20217;-74
2023/07/24 03:41:13;;;;;;;5.57;4.40;;;16.90;99.90;;;;;;4771533;29;20234;-75
2023/07/24 03:43:39;;;;;;;5.07;4.40;;;16.90;99.90;;;;;;4795713;29;20257;-73
2023/07/24 03:46:05;;;;;;;5.87;4.43;;;16.90;99.90;;;;;;4787659;30;20185;-74
2023/07/24 03:48:30;;;;;;;7.40;4.90;;;16.90;99.90;;;;;;4801061;29;20672;-74
2023/07/24 03:51:00;;;;;;;5.57;4.43;;;17.00;99.90;;;;;;4785040;29;20209;-74
2023/07/24 03:53:26;;;;;;;8.13;5.67;;;17.00;99.90;;;;;;4800849;29;20257;-75
2023/07/24 03:55:51;;;;;;;7.67;5.27;;;17.10;99.90;;;;;;4801230;29;20486;-74
2023/07/24 03:58:17;;;;;;;6.90;4.77;;;17.10;99.90;;;;;;4783957;29;20553;-75
2023/07/24 04:00:42;;;;;;;6.17;4.60;;;17.10;99.90;;;;;;4792606;29;20228;-76
2023/07/24 04:03:09;;;;;;;6.60;5.90;;;17.10;99.90;;;;;;4771772;29;20660;-74
2023/07/24 04:05:35;;;;;;;6.70;4.90;;;17.10;99.90;;;;;;4799127;29;20566;-75
2023/07/24 04:08:02;;;;;;;8.43;5.17;;;17.10;99.90;;;;;;4783782;29;20696;-74
2023/07/24 04:10:28;;;;;;;6.77;5.97;;;17.00;99.90;;;;;;4807858;29;20471;-74
2023/07/24 04:12:54;;;;;;;10.43;6.47;;;17.00;99.90;;;;;;4782368;30;20540;-75
2023/07/24 04:15:20;;;;;;;9.80;7.03;;;17.00;99.90;;;;;;4782633;30;20447;-74
2023/07/24 04:17:45;;;;;;;8.87;6.00;;;17.00;99.90;;;;;;4787378;30;20610;-75
2023/07/24 04:20:11;;;;;;;7.50;5.73;;;17.10;99.90;;;;;;4808997;29;20608;-75
2023/07/24 04:22:37;;;;;;;7.40;5.40;;;17.10;99.90;;;;;;4807973;29;20192;-75
2023/07/24 04:25:02;;;;;;;7.10;5.07;;;17.10;99.90;;;;;;4786918;30;20227;-75
2023/07/24 04:27:28;;;;;;;6.60;4.87;;;17.10;99.90;;;;;;4775418;30;20240;-75
2023/07/24 04:29:54;;;;;;;5.67;4.80;;;17.20;99.90;;;;;;4788945;30;20432;-74
2023/07/24 04:32:19;;;;;;;6.50;5.00;;;17.20;99.90;;;;;;4814869;29;20189;-76
2023/07/24 04:34:45;;;;;;;6.87;5.10;;;17.30;99.90;;;;;;4784535;30;20199;-76
2023/07/24 04:37:10;;;;;;;6.27;5.40;;;17.40;99.90;;;;;;4784760;30;20251;-75
2023/07/24 04:39:38;;;;;;;5.97;5.13;;;17.50;99.90;;;;;;4774122;30;20226;-74
2023/07/24 04:42:04;;;;;;;5.40;4.43;;;17.50;99.90;;;;;;4806606;29;20229;-74
2023/07/24 04:44:31;;;;;;;4.80;4.30;;;17.60;99.90;;;;;;4769633;30;20429;-74
2023/07/24 04:46:58;;;;;;;4.00;3.47;;;17.60;99.90;;;;;;4783837;30;20480;-76
2023/07/24 04:49:24;;;;;;;8.97;6.27;;;17.70;99.90;;;;;;4770793;30;20445;-75
2023/07/24 04:51:50;;;;;;;5.67;4.63;;;17.80;99.90;;;;;;4770262;30;20434;-75
2023/07/24 04:54:17;;;;;;;5.70;4.47;;;17.80;99.90;;;;;;4766267;30;20440;-76
2023/07/24 04:56:42;;;;;;;6.77;4.90;;;17.80;99.90;;;;;;4782185;30;20475;-74
2023/07/24 04:59:08;;;;;;;4.33;3.77;;;17.90;99.90;;;;;;4782042;30;20403;-75
2023/07/24 05:01:34;;;;;;;9.37;5.67;;;18.00;99.90;;;;;;4789510;29;20186;-76
2023/07/24 05:04:00;;;;;;;7.20;5.70;;;18.10;99.90;;;;;;4799312;29;20186;-75
2023/07/24 05:06:26;;;;;;;5.33;4.80;;;18.30;99.90;;;;;;4783973;30;20183;-76
2023/07/24 05:08:54;;;;;;;6.13;4.93;;;18.30;99.90;;;;;;4783725;29;20295;-76
2023/07/24 05:11:19;;;;;;;5.80;5.10;;;18.40;99.90;;;;;;4782382;30;20909;-76
2023/07/24 05:13:45;;;;;;;5.93;5.37;;;18.60;99.90;;;;;;4784149;30;20439;-75
2023/07/24 05:16:10;;;;;;;8.87;6.20;;;18.70;99.90;;;;;;4800343;29;20426;-75
2023/07/24 05:18:36;;;;;;;7.20;5.70;;;18.80;99.90;;;;;;4792461;29;20225;-74
2023/07/24 05:21:02;;;;;;;7.80;5.53;;;18.90;99.90;;;;;;4788393;29;20199;-76
2023/07/24 05:23:29;;;;;;;6.33;5.47;;;19.00;99.90;;;;;;4788448;29;20198;-76
2023/07/24 05:25:59;;;;;;;5.80;5.13;;;19.40;99.90;;;;;;4805950;29;20175;-74
2023/07/24 05:28:26;;;;;;;6.30;4.77;;;19.80;99.90;;;;;;4803496;29;20419;-77
2023/07/24 05:30:53;;;;;;;6.03;4.37;;;19.90;99.90;;;;;;4803437;29;20538;-76
2023/07/24 05:33:19;;;;;;;4.77;4.37;;;20.10;99.90;;;;;;4780718;30;20433;-77
2023/07/24 05:35:45;;;;;;;9.20;6.70;;;20.30;99.90;;;;;;4754196;30;20429;-74
2023/07/24 05:38:11;;;;;;;5.73;4.23;;;20.60;99.90;;;;;;4753772;30;20485;-74
2023/07/24 05:40:36;;;;;;;7.10;5.13;;;21.10;99.90;;;;;;4753918;30;20224;-75
2023/07/24 05:43:03;;;;;;;5.30;4.10;;;21.80;99.90;;;;;;4753679;30;20426;-74
2023/07/24 05:45:29;;;;;;;6.73;4.50;;;22.50;99.90;;;;;;4739240;30;20208;-76
2023/07/24 05:47:55;;;;;;;5.80;4.80;;;23.10;99.90;;;;;;4769781;30;20473;-76
2023/07/24 05:50:23;;;;;;;7.57;4.67;;;23.70;99.90;;;;;;4757893;30;20518;-75
2023/07/24 05:52:51;;;;;;;5.20;4.70;;;24.00;99.90;;;;;;4771395;30;20176;-74
2023/07/24 05:55:16;;;;;;;8.67;5.23;;;24.20;99.90;;;;;;4774302;30;20438;-74
2023/07/24 05:57:44;;;;;;;4.57;4.17;;;24.30;99.90;;;;;;4762431;30;20231;-74
2023/07/24 06:00:10;;;;;;;6.80;4.60;;;24.30;99.90;;;;;;4786364;30;20440;-74
2023/07/24 06:02:39;;;;;;;4.83;4.07;;;24.10;99.90;;;;;;4804693;29;20413;-74
2023/07/24 06:05:06;;;;;;;5.30;3.90;;;24.10;99.90;;;;;;4777008;29;20411;-75
2023/07/24 06:07:31;;;;;;;4.53;3.80;;;24.00;99.90;;;;;;4785700;30;20261;-75
2023/07/24 06:09:57;;;;;;;7.13;4.50;;;24.10;99.90;;;;;;4826537;24;20578;-77
2023/07/24 06:12:37;;;;;;;6.33;4.83;;;24.20;99.90;;;;;;4811110;29;20424;-77
2023/07/24 06:15:04;;;;;;;7.30;4.53;;;24.10;99.90;;;;;;4779894;29;20185;-75
2023/07/24 06:17:31;;;;;;;12.23;5.53;;;24.00;99.90;;;;;;4807576;29;20535;-74
2023/07/24 06:19:58;;;;;;;5.63;4.60;;;23.80;97.30;;;;;;4786546;29;20449;-77
2023/07/24 06:22:24;;;;;;;5.80;4.60;;;23.50;99.90;;;;;;4794005;29;20453;-76
2023/07/24 06:24:51;;;;;;;7.40;4.63;;;23.20;99.90;;;;;;4811344;29;20438;-75
2023/07/24 06:27:19;;;;;;;6.80;4.90;;;23.00;99.90;;;;;;4794731;29;20212;-74
2023/07/24 06:29:45;;;;;;;5.33;4.70;;;22.80;99.90;;;;;;4798357;29;20451;-77
2023/07/24 06:32:12;;;;;;;9.10;5.30;;;22.60;99.90;;;;;;4829930;29;20436;-77
2023/07/24 06:34:40;;;;;;;5.60;4.60;;;22.50;99.90;;;;;;4796111;29;20428;-75
2023/07/24 06:37:07;;;;;;;4.37;3.97;;;22.30;99.90;;;;;;4811844;29;20464;-77
2023/07/24 06:39:36;;;;;;;8.63;4.60;;;22.20;99.90;;;;;;4784437;29;20489;-74
2023/07/24 06:42:03;;;;;;;5.63;4.67;;;22.10;99.90;;;;;;4783621;29;20206;-77
2023/07/24 06:44:35;;;;;;;4.77;4.30;;;22.10;99.90;;;;;;4813222;29;20441;-76
2023/07/24 06:47:02;;;;;;;7.00;4.70;;;22.10;99.90;;;;;;4783886;29;20424;-78
2023/07/24 06:49:30;;;;;;;5.70;5.00;;;22.10;99.60;;;;;;4811624;29;20540;-78
2023/07/24 06:51:57;;;;;;;4.53;4.07;;;22.00;99.90;;;;;;4811990;29;20465;-76
2023/07/24 06:54:24;;;;;;;5.47;4.60;;;22.00;99.90;;;;;;4779364;30;20401;-77
2023/07/24 06:57:13;;;;;;;4.50;4.03;;;22.00;99.90;;;;;;4779687;30;20443;-77
2023/07/24 06:59:39;;;;;;;6.63;3.70;;;22.10;99.90;;;;;;4787875;29;20741;-76
2023/07/24 07:02:10;;;;;;;6.57;4.77;;;22.20;99.90;;;;;;4800331;29;20468;-78
2023/07/24 07:04:37;;;;;;;4.73;3.50;;;22.30;99.90;;;;;;4814979;29;20427;-77
2023/07/24 07:07:37;;;;;;;5.13;4.23;;;22.50;99.30;;;;;;4808459;29;20437;-77
2023/07/24 07:10:21;;;;;;;6.17;4.17;;;22.70;96.30;;;;;;4793856;30;20484;-78
2023/07/24 07:12:48;;;;;;;4.30;3.53;;;22.90;93.90;;;;;;4767530;30;20984;-76
2023/07/24 07:15:19;;;;;;;3.40;2.60;;;23.10;92.40;;;;;;4774382;30;20429;-77
2023/07/24 07:18:17;;;;;;;5.30;3.50;;;23.30;89.80;;;;;;4764083;30;20476;-76
2023/07/24 07:20:52;;;;;;;4.50;3.37;;;23.50;87.50;;;;;;4868716;24;20678;-76
2023/07/24 07:23:42;;;;;;;4.73;3.60;;;23.60;84.90;;;;;;4795049;30;20499;-76
2023/07/24 07:26:22;;;;;;;4.20;3.57;;;23.60;84.40;;;;;;4777186;29;20488;-79
2023/07/24 07:28:51;;;;;;;3.47;3.17;;;23.50;81.60;;;;;;4797750;29;20512;-77
2023/07/24 07:31:18;;;;;;;4.30;3.63;;;23.40;82.20;;;;;;4797067;29;20431;-74
2023/07/24 07:33:56;;;;;;;4.87;3.40;;;23.20;81.40;;;;;;4812370;29;20431;-76
2023/07/24 07:36:31;;;;;;;6.17;3.90;;;23.10;83.20;;;;;;4761905;30;20501;-76
2023/07/24 07:39:10;;;;;;;4.57;3.60;;;23.00;84.00;;;;;;4791465;29;20449;-77
2023/07/24 07:41:38;;;;;;;3.30;3.00;;;23.00;84.60;;;;;;4788741;30;20426;-78
2023/07/24 07:44:31;;;;;;;3.20;2.90;;;23.00;85.70;;;;;;4774715;30;20591;-75
2023/07/24 07:47:06;;;;;;;4.33;3.10;;;23.10;84.60;;;;;;4754983;30;20431;-76
2023/07/24 07:52:10;;;;;;;3.63;3.17;;;23.30;82.50;;;;;;5016189;24;20516;-76
2023/07/24 07:57:13;;;;;;;5.63;3.50;;;23.50;80.50;;;;;;4838552;24;20477;-76
2023/07/24 08:02:14;;;;;;;5.60;4.07;;;23.80;78.30;;;;;;5517856;24;20518;-76
2023/07/24 08:04:48;;;;;;;3.50;3.20;;;23.80;76.60;;;;;;4764483;29;20478;-77
2023/07/24 08:07:24;;;;;;;4.30;3.30;;;23.80;77.10;;;;;;4778749;30;20711;-79
2023/07/24 08:09:58;;;;;;;4.30;3.70;;;23.90;77.50;;;;;;5008639;24;20477;-77
2023/07/24 08:12:25;;;;;;;3.90;3.47;;;24.00;78.00;;;;;;4763686;30;20591;-78
2023/07/24 08:15:02;;;;;;;4.47;3.87;;;24.20;76.10;;;;;;4760835;30;20438;-77
2023/07/24 08:17:33;;;;;;;4.53;3.70;;;24.30;74.90;;;;;;4778775;30;20532;-78
2023/07/24 08:20:19;;;;;;;4.20;3.80;;;24.30;74.20;;;;;;4788392;29;20458;-77
2023/07/24 08:23:15;;;;;;;4.80;3.40;;;24.30;74.10;;;;;;4801839;29;20412;-78
2023/07/24 08:26:03;;;;;;;6.00;4.47;;;24.30;74.10;;;;;;5033149;24;20527;-77
2023/07/24 08:28:41;;;;;;;6.47;3.80;;;24.10;74.00;;;;;;4764808;30;20409;-78
2023/07/24 08:31:19;;;;;;;4.80;3.60;;;23.90;73.90;;;;;;5006643;24;20472;-77
2023/07/24 08:33:47;;;;;;;4.73;4.20;;;23.60;74.70;;;;;;4793627;29;20425;-78
2023/07/24 08:37:01;;;;;;;4.67;3.50;;;23.50;76.40;;;;;;4795858;30;20417;-78
2023/07/24 08:39:54;;;;;;;6.00;4.03;;;23.30;77.80;;;;;;4861057;24;20491;-77
2023/07/24 08:42:31;;;;;;;6.50;5.13;;;23.30;77.30;;;;;;4730971;30;20431;-77
2023/07/24 08:45:13;;;;;;;4.10;3.70;;;23.30;78.20;;;;;;4737231;30;20416;-78
2023/07/24 08:47:59;;;;;;;4.60;3.93;;;23.40;77.40;;;;;;4724014;30;20436;-79
2023/07/24 08:50:40;;;;;;;4.27;3.03;;;23.60;75.90;;;;;;4723642;30;20483;-79
2023/07/24 08:53:08;;;;;;;4.07;3.40;;;24.00;72.60;;;;;;4708926;30;20437;-78
2023/07/24 08:55:43;;;;;;;4.53;3.70;;;24.40;71.10;;;;;;4710172;30;20397;-78
2023/07/24 08:58:57;;;;;;;8.30;3.53;;;24.70;68.10;;;;;;4709173;30;20474;-78
2023/07/24 09:01:32;;;;;;;4.80;3.70;;;24.90;65.90;;;;;;4681322;30;20453;-77
2023/07/24 09:04:01;;;;;;;4.20;3.60;;;24.90;64.90;;;;;;4691366;30;20418;-76
2023/07/24 09:06:30;;;;;;;4.87;3.90;;;24.90;64.60;;;;;;4719724;30;20433;-78
2023/07/24 09:08:56;;;;;;;4.40;3.60;;;24.80;64.40;;;;;;4704983;30;20458;-78
2023/07/24 09:14:38;;;;;;;5.30;3.63;;;24.70;65.00;;;;;;5511916;24;20485;-77
2023/07/24 09:17:10;;;;;;;6.67;3.20;;;24.70;64.10;;;;;;4810833;29;20453;-77
2023/07/24 09:19:43;;;;;;;5.23;3.97;;;24.80;63.80;;;;;;4784915;29;20463;-76
2023/07/24 09:22:40;;;;;;;4.73;3.80;;;24.80;64.10;;;;;;4800435;29;20505;-78
2023/07/24 09:25:17;;;;;;;4.57;3.87;;;24.90;63.80;;;;;;4798374;29;20434;-78
2023/07/24 09:27:52;;;;;;;6.17;3.83;;;25.10;62.60;;;;;;4813001;29;20396;-77
2023/07/24 09:31:43;;;;;;;4.00;3.60;;;25.00;61.60;;;;;;5653214;24;20459;31
2023/07/24 09:34:54;;;;;;;3.43;3.13;;;24.90;61.40;;;;;;4758452;30;20527;-76
2023/07/24 09:52:00;;;;;;;4.60;3.40;;;24.50;61.20;;;;;;5199719;24;20774;-76
2023/07/24 09:54:41;;;;;;;4.43;3.27;;;24.60;61.90;;;;;;4778640;30;20492;-78
2023/07/24 09:57:31;;;;;;;3.57;3.27;;;24.60;61.70;;;;;;4761508;30;20523;-77
2023/07/24 10:02:49;;;;;;;3.57;3.00;;;24.80;60.60;;;;;;4831534;24;20500;-76
2023/07/24 10:05:21;;;;;;;4.20;3.27;;;25.00;59.70;;;;;;4754755;29;20444;-78
2023/07/24 10:07:49;;;;;;;3.40;3.10;;;25.10;59.20;;;;;;4797665;30;20459;-79
2023/07/24 10:26:48;;;;;;;3.70;3.20;;;26.60;55.90;;;;;;5749810;24;20471;-76
2023/07/24 10:29:25;;;;;;;3.20;2.70;;;26.60;54.90;;;;;;4810563;29;20468;-78
2023/07/24 10:32:51;;;;;;;3.50;3.20;;;26.30;54.70;;;;;;4805247;29;20527;-77
2023/07/24 10:36:22;;;;;;;3.50;3.00;;;26.00;55.60;;;;;;4783603;30;20409;-77
2023/07/24 10:39:01;;;;;;;3.57;3.13;;;25.90;55.80;;;;;;4740586;30;20484;-77
2023/07/24 10:48:11;;;;;;;3.67;3.20;;;26.40;54.40;;;;;;5298939;24;20511;-77
2023/07/24 10:50:55;;;;;;;3.87;3.47;;;26.20;55.00;;;;;;4761330;30;20432;-78
2023/07/24 10:53:31;;;;;;;4.27;3.13;;;26.10;55.30;;;;;;4733971;30;20438;-77
2023/07/24 11:07:14;;;;;;;5.70;4.00;;;25.00;58.30;;;;;;5184822;24;20514;-74
2023/07/24 11:09:41;;;;;;;4.90;3.80;;;24.30;63.30;;;;;;4946669;24;20486;-78
2023/07/24 11:12:30;;;;;;;4.43;3.50;;;23.60;70.50;;;;;;4780702;29;20436;-77
2023/07/24 11:14:58;;;;;;;3.90;3.50;;;23.30;80.10;;;;;;4801915;29;20449;-80
2023/07/24 11:20:24;;;;;;;4.50;3.63;;;23.30;90.30;;;;;;4356652;27;20515;-78
2023/07/24 11:29:32;;;;;;;4.60;3.57;;;24.20;74.30;;;;;;5356691;24;20495;-77
2023/07/24 11:32:17;;;;;;;4.60;3.63;;;24.80;67.50;;;;;;4806266;29;20456;-78
2023/07/24 11:37:51;;;;;;;3.70;3.40;;;26.00;60.00;;;;;;5199913;24;20467;-78
2023/07/24 15:44:41;;;;;;;4.67;2.53;;;20.10;99.90;;;;;;4409833;24;20491;-79
2023/07/24 15:47:53;;;;;;;2.13;1.90;;;20.80;99.90;;;;;;4813137;29;20428;-77
2023/07/24 15:50:29;;;;;;;2.00;1.63;;;21.10;99.90;;;;;;5097127;24;20584;-79
2023/07/24 15:59:02;;;;;;;2.10;1.90;;;21.60;99.90;;;;;;5007267;24;20469;-80
2023/07/24 16:02:09;;;;;;;3.07;2.27;;;21.70;99.90;;;;;;4802299;29;20397;-80
2023/07/24 16:35:53;;;;;;;3.07;2.30;;;22.90;94.50;;;;;;5247538;24;20483;-78
2023/07/24 16:49:36;;;;;;;4.40;2.10;;;22.60;78.80;;;;;;4991284;24;20487;-79
2023/07/24 17:02:25;;;;;;;3.80;3.40;;;22.20;71.90;;;;;;4324342;28;20480;-79
2023/07/24 17:07:28;;;;;;;3.77;3.37;;;21.70;86.80;;;;;;5326483;24;20525;-79
2023/07/24 17:09:55;;;;;;;5.07;3.10;;;21.30;92.10;;;;;;4779824;30;20510;-78
2023/07/24 17:12:22;;;;;;;5.03;4.23;;;20.90;95.10;;;;;;4796512;29;20417;-80
2023/07/24 17:17:54;;;;;;;3.87;3.57;;;19.80;99.90;;;;;;5093623;24;20496;-78
2023/07/24 17:20:23;;;;;;;4.40;3.73;;;19.40;99.90;;;;;;5013125;24;20476;-80
2023/07/24 17:48:57;;;;;;;7.20;4.77;;;16.00;99.90;;;;;;4954319;24;20756;-79
2023/07/24 17:51:24;;;;;;;10.67;5.80;;;15.90;99.90;;;;;;5048864;24;20499;-78
2023/07/24 17:56:30;;;;;;;7.70;5.73;;;15.80;99.90;;;;;;5189024;24;20471;-80
2023/07/24 18:02:34;;;;;;;6.97;6.07;;;15.60;99.90;;;;;;5037788;24;20499;-78
2023/07/24 18:10:31;;;;;;;5.70;4.80;;;16.20;99.90;;;;;;3971177;28;20496;-80
2023/07/24 18:12:59;;;;;;;5.50;4.20;;;16.20;99.90;;;;;;4728647;30;20440;-78
2023/07/24 18:15:31;;;;;;;4.50;3.90;;;16.10;99.90;;;;;;4728637;30;20449;-79
2023/07/24 18:21:14;;;;;;;4.63;3.93;;;16.20;99.90;;;;;;4689469;27;20497;-78
2023/07/24 18:23:57;;;;;;;3.47;3.17;;;16.10;99.90;;;;;;4777708;30;20435;-78
2023/07/24 18:31:31;;;;;;;3.67;2.77;;;16.10;99.90;;;;;;4811854;29;20443;-79
2023/07/24 18:34:06;;;;;;;2.97;2.67;;;16.10;99.90;;;;;;4924460;24;20484;-78
2023/07/24 18:39:40;;;;;;;2.83;2.53;;;16.10;99.90;;;;;;5359427;24;20477;-78
2023/07/24 18:46:12;;;;;;;2.60;2.13;;;16.00;99.90;;;;;;5213356;24;20475;-78
2023/07/24 18:48:40;;;;;;;2.63;2.03;;;16.00;99.90;;;;;;4743571;30;20427;-77
2023/07/24 18:51:09;;;;;;;2.40;2.10;;;15.90;99.90;;;;;;4759867;30;20435;-78
2023/07/24 18:53:40;;;;;;;2.00;1.70;;;15.90;99.90;;;;;;4759718;30;20468;-77
2023/07/24 18:56:32;;;;;;;2.20;1.63;;;15.90;99.90;;;;;;4748261;30;20440;-79
2023/07/24 18:59:28;;;;;;;1.77;1.60;;;16.00;99.90;;;;;;4745305;30;20456;-78
2023/07/24 19:02:20;;;;;;;2.40;1.97;;;16.00;99.90;;;;;;5006641;24;20507;-79
2023/07/24 19:04:56;;;;;;;3.00;2.03;;;16.00;99.90;;;;;;4917067;24;20445;31
2023/07/24 19:07:23;;;;;;;2.10;1.87;;;16.00;99.90;;;;;;4763741;30;20469;-77
2023/07/24 19:09:51;;;;;;;2.60;2.30;;;15.90;99.90;;;;;;4795075;29;20490;-78
2023/07/24 19:12:49;;;;;;;2.63;2.40;;;15.80;99.90;;;;;;4373352;28;20463;-79
2023/07/24 19:15:17;;;;;;;4.10;2.83;;;15.70;99.90;;;;;;4733566;30;20435;-77
2023/07/24 19:17:44;;;;;;;3.10;2.80;;;15.70;99.90;;;;;;4748095;30;20450;-77
2023/07/24 19:20:13;;;;;;;2.83;2.47;;;15.70;99.90;;;;;;4761942;30;20442;-77
2023/07/24 19:22:41;;;;;;;3.70;3.00;;;15.70;99.90;;;;;;4733818;30;20411;-79
2023/07/24 19:25:15;;;;;;;3.53;2.70;;;15.60;99.90;;;;;;4748298;30;20426;-78
2023/07/24 19:27:49;;;;;;;2.90;2.60;;;15.60;99.90;;;;;;4849150;24;20555;-78
2023/07/24 19:30:17;;;;;;;2.67;2.30;;;15.60;99.90;;;;;;4748179;30;20462;-79
2023/07/24 19:32:44;;;;;;;2.67;2.37;;;15.50;99.90;;;;;;4747004;30;20480;-76
2023/07/24 19:35:10;;;;;;;2.97;2.67;;;15.40;99.90;;;;;;4763428;30;20450;-78
2023/07/24 19:41:29;;;;;;;3.30;2.47;;;15.30;99.90;;;;;;4162264;24;20535;-80
2023/07/24 19:44:03;;;;;;;2.80;2.50;;;15.30;99.90;;;;;;4750932;29;20565;-78
2023/07/24 19:46:29;;;;;;;2.60;2.40;;;15.30;99.90;;;;;;4752054;30;20428;-78
2023/07/24 19:49:00;;;;;;;2.80;2.50;;;15.30;99.90;;;;;;4765670;30;20425;-79
2023/07/24 19:51:31;;;;;;;2.73;2.43;;;15.40;99.90;;;;;;5041192;24;20229;-79
2023/07/24 19:57:25;;;;;;;4.63;3.17;;;15.30;99.90;;;;;;4959274;24;20483;-79
2023/07/24 20:00:27;;;;;;;4.30;3.13;;;15.30;99.90;;;;;;4782794;29;20449;-77
2023/07/24 20:03:05;;;;;;;3.10;2.30;;;15.30;99.90;;;;;;5285342;24;20485;-78
2023/07/24 20:08:54;;;;;;;4.33;3.50;;;15.30;99.90;;;;;;4809606;24;20511;-77
2023/07/24 20:14:30;;;;;;;5.73;3.43;;;15.20;99.90;;;;;;4935459;24;20657;-77
2023/07/24 20:17:27;;;;;;;4.40;3.33;;;15.20;99.90;;;;;;4758590;29;20448;-78
2023/07/24 20:20:01;;;;;;;5.30;3.73;;;15.20;99.90;;;;;;4761306;30;20447;-78
2023/07/24 20:30:46;;;;;;;8.07;5.77;;;15.30;99.90;;;;;;4952396;24;20476;-76
2023/07/24 20:33:15;;;;;;;9.93;6.33;;;15.20;99.90;;;;;;4782698;30;20493;-78
2023/07/24 20:35:44;;;;;;;9.50;6.47;;;15.30;99.90;;;;;;4797369;30;20425;-78
2023/07/24 20:38:37;;;;;;;9.37;7.57;;;15.20;99.90;;;;;;4746458;30;20462;-79
2023/07/24 20:41:27;;;;;;;13.40;8.90;;;15.30;99.90;;;;;;4892920;24;20507;-76
2023/07/24 20:44:00;;;;;;;10.93;7.50;;;15.20;99.90;;;;;;4750423;30;20414;-76
2023/07/24 20:46:42;;;;;;;13.30;8.27;;;15.20;99.90;;;;;;4762733;30;20434;-79